sensor_id;sensor_type;location;lat;lon;timestamp;P1;durP1;ratioP1;P2;durP2;ratioP2
26060;SDS011;36331;51.378;0.018;2023-03-01T00:01:55;11.20;;;8.93;;
26060;SDS011;36331;51.378;0.018;2023-03-01T00:04:25;10.13;;;7.88;;
26060;SDS011;36331;51.378;0.018;2023-03-01T00:06:54;12.75;;;8.35;;
26060;SDS011;36331;51.378;0.018;2023-03-01T00:09:23;16.77;;;8.93;;
26060;SDS011;36331;51.378;0.018;2023-03-01T00:11:52;13.65;;;8.98;;
26060;SDS011;36331;51.378;0.018;2023-03-01T00:14:21;13.55;;;9.95;;
26060;SDS011;36331;51.378;0.018;2023-03-01T00:16:50;14.18;;;10.18;;
26060;SDS011;36331;51.378;0.018;2023-03-01T00:19:21;13.07;;;9.90;;
26060;SDS011;36331;51.378;0.018;2023-03-01T00:21:50;16.88;;;9.98;;
26060;SDS011;36331;51.378;0.018;2023-03-01T00:24:19;15.02;;;9.15;;
26060;SDS011;36331;51.378;0.018;2023-03-01T00:26:49;14.95;;;9.32;;
26060;SDS011;36331;51.378;0.018;2023-03-01T00:29:22;15.02;;;9.77;;
26060;SDS011;36331;51.378;0.018;2023-03-01T00:31:51;13.52;;;9.55;;
26060;SDS011;36331;51.378;0.018;2023-03-01T00:34:21;13.05;;;9.45;;
26060;SDS011;36331;51.378;0.018;2023-03-01T00:36:50;12.23;;;8.68;;
26060;SDS011;36331;51.378;0.018;2023-03-01T00:39:19;15.13;;;10.30;;
26060;SDS011;36331;51.378;0.018;2023-03-01T00:41:48;14.10;;;9.18;;
26060;SDS011;36331;51.378;0.018;2023-03-01T00:44:17;14.75;;;9.73;;
26060;SDS011;36331;51.378;0.018;2023-03-01T00:46:46;14.00;;;9.45;;
26060;SDS011;36331;51.378;0.018;2023-03-01T00:49:15;11.32;;;9.00;;
26060;SDS011;36331;51.378;0.018;2023-03-01T00:51:46;14.40;;;9.73;;
26060;SDS011;36331;51.378;0.018;2023-03-01T00:54:15;16.70;;;9.52;;
26060;SDS011;36331;51.378;0.018;2023-03-01T00:56:44;14.52;;;9.50;;
26060;SDS011;36331;51.378;0.018;2023-03-01T00:59:13;13.88;;;9.60;;
26060;SDS011;36331;51.378;0.018;2023-03-01T01:01:42;14.45;;;8.60;;
26060;SDS011;36331;51.378;0.018;2023-03-01T01:04:12;16.98;;;9.85;;
26060;SDS011;36331;51.378;0.018;2023-03-01T01:06:42;12.93;;;8.40;;
26060;SDS011;36331;51.378;0.018;2023-03-01T01:09:14;16.63;;;9.35;;
26060;SDS011;36331;51.378;0.018;2023-03-01T01:11:45;16.77;;;10.55;;
26060;SDS011;36331;51.378;0.018;2023-03-01T01:14:15;14.50;;;9.32;;
26060;SDS011;36331;51.378;0.018;2023-03-01T01:16:44;15.50;;;10.07;;
26060;SDS011;36331;51.378;0.018;2023-03-01T01:19:13;15.70;;;10.52;;
26060;SDS011;36331;51.378;0.018;2023-03-01T01:21:43;14.07;;;9.77;;
26060;SDS011;36331;51.378;0.018;2023-03-01T01:24:13;13.73;;;9.70;;
26060;SDS011;36331;51.378;0.018;2023-03-01T01:26:43;17.13;;;10.37;;
26060;SDS011;36331;51.378;0.018;2023-03-01T01:29:12;13.68;;;9.20;;
26060;SDS011;36331;51.378;0.018;2023-03-01T01:31:42;12.80;;;9.10;;
26060;SDS011;36331;51.378;0.018;2023-03-01T01:34:13;14.65;;;10.30;;
26060;SDS011;36331;51.378;0.018;2023-03-01T01:36:43;11.57;;;8.65;;
26060;SDS011;36331;51.378;0.018;2023-03-01T01:39:13;15.43;;;9.65;;
26060;SDS011;36331;51.378;0.018;2023-03-01T01:41:43;15.43;;;10.20;;
26060;SDS011;36331;51.378;0.018;2023-03-01T01:44:14;18.02;;;10.30;;
26060;SDS011;36331;51.378;0.018;2023-03-01T01:46:44;13.75;;;10.07;;
26060;SDS011;36331;51.378;0.018;2023-03-01T01:49:19;13.73;;;9.88;;
26060;SDS011;36331;51.378;0.018;2023-03-01T01:51:53;14.88;;;10.57;;
26060;SDS011;36331;51.378;0.018;2023-03-01T01:54:25;14.40;;;9.82;;
26060;SDS011;36331;51.378;0.018;2023-03-01T01:56:58;17.50;;;10.45;;
26060;SDS011;36331;51.378;0.018;2023-03-01T01:59:29;17.10;;;11.90;;
26060;SDS011;36331;51.378;0.018;2023-03-01T02:02:00;15.80;;;9.43;;
26060;SDS011;36331;51.378;0.018;2023-03-01T02:04:30;17.05;;;9.32;;
26060;SDS011;36331;51.378;0.018;2023-03-01T02:07:01;15.45;;;9.95;;
26060;SDS011;36331;51.378;0.018;2023-03-01T02:09:35;14.77;;;10.02;;
26060;SDS011;36331;51.378;0.018;2023-03-01T02:12:04;19.52;;;11.27;;
26060;SDS011;36331;51.378;0.018;2023-03-01T02:14:34;17.60;;;11.30;;
26060;SDS011;36331;51.378;0.018;2023-03-01T02:17:03;17.02;;;11.25;;
26060;SDS011;36331;51.378;0.018;2023-03-01T02:19:36;18.70;;;12.73;;
26060;SDS011;36331;51.378;0.018;2023-03-01T02:22:12;16.30;;;10.77;;
26060;SDS011;36331;51.378;0.018;2023-03-01T02:24:48;17.05;;;11.02;;
26060;SDS011;36331;51.378;0.018;2023-03-01T02:27:22;18.38;;;12.30;;
26060;SDS011;36331;51.378;0.018;2023-03-01T02:29:56;15.70;;;10.82;;
26060;SDS011;36331;51.378;0.018;2023-03-01T02:32:26;15.00;;;10.50;;
26060;SDS011;36331;51.378;0.018;2023-03-01T02:34:55;22.52;;;11.45;;
26060;SDS011;36331;51.378;0.018;2023-03-01T02:37:25;22.00;;;11.10;;
26060;SDS011;36331;51.378;0.018;2023-03-01T02:39:56;16.55;;;11.32;;
26060;SDS011;36331;51.378;0.018;2023-03-01T02:44:57;16.23;;;10.88;;
26060;SDS011;36331;51.378;0.018;2023-03-01T02:47:26;17.83;;;10.95;;
26060;SDS011;36331;51.378;0.018;2023-03-01T02:49:56;16.98;;;10.23;;
26060;SDS011;36331;51.378;0.018;2023-03-01T02:52:32;15.43;;;10.45;;
26060;SDS011;36331;51.378;0.018;2023-03-01T02:55:03;17.05;;;10.75;;
26060;SDS011;36331;51.378;0.018;2023-03-01T02:57:33;15.88;;;10.82;;
26060;SDS011;36331;51.378;0.018;2023-03-01T03:00:05;18.00;;;10.35;;
26060;SDS011;36331;51.378;0.018;2023-03-01T03:02:36;17.17;;;11.50;;
26060;SDS011;36331;51.378;0.018;2023-03-01T03:05:11;16.65;;;10.32;;
26060;SDS011;36331;51.378;0.018;2023-03-01T03:07:42;17.13;;;10.57;;
26060;SDS011;36331;51.378;0.018;2023-03-01T03:10:13;14.90;;;10.15;;
26060;SDS011;36331;51.378;0.018;2023-03-01T03:12:48;12.75;;;8.18;;
26060;SDS011;36331;51.378;0.018;2023-03-01T03:15:19;12.85;;;8.40;;
26060;SDS011;36331;51.378;0.018;2023-03-01T03:17:49;12.65;;;7.10;;
26060;SDS011;36331;51.378;0.018;2023-03-01T03:20:19;13.18;;;8.05;;
26060;SDS011;36331;51.378;0.018;2023-03-01T03:22:50;10.38;;;6.93;;
26060;SDS011;36331;51.378;0.018;2023-03-01T03:25:20;8.50;;;4.90;;
26060;SDS011;36331;51.378;0.018;2023-03-01T03:27:50;8.55;;;4.20;;
26060;SDS011;36331;51.378;0.018;2023-03-01T03:30:26;6.60;;;3.28;;
26060;SDS011;36331;51.378;0.018;2023-03-01T03:35:25;7.97;;;3.10;;
26060;SDS011;36331;51.378;0.018;2023-03-01T03:37:57;6.68;;;2.70;;
26060;SDS011;36331;51.378;0.018;2023-03-01T03:40:30;4.65;;;3.20;;
26060;SDS011;36331;51.378;0.018;2023-03-01T03:42:59;5.78;;;2.58;;
26060;SDS011;36331;51.378;0.018;2023-03-01T03:45:31;4.28;;;2.65;;
26060;SDS011;36331;51.378;0.018;2023-03-01T03:48:01;6.13;;;2.42;;
26060;SDS011;36331;51.378;0.018;2023-03-01T03:50:30;3.45;;;2.78;;
26060;SDS011;36331;51.378;0.018;2023-03-01T03:53:00;7.68;;;2.80;;
26060;SDS011;36331;51.378;0.018;2023-03-01T03:55:29;6.47;;;2.38;;
26060;SDS011;36331;51.378;0.018;2023-03-01T03:58:03;6.13;;;2.42;;
26060;SDS011;36331;51.378;0.018;2023-03-01T04:00:35;7.03;;;3.75;;
26060;SDS011;36331;51.378;0.018;2023-03-01T04:03:05;6.80;;;2.07;;
26060;SDS011;36331;51.378;0.018;2023-03-01T04:05:35;4.07;;;2.28;;
26060;SDS011;36331;51.378;0.018;2023-03-01T04:08:04;6.75;;;2.60;;
26060;SDS011;36331;51.378;0.018;2023-03-01T04:10:36;3.85;;;1.90;;
26060;SDS011;36331;51.378;0.018;2023-03-01T04:13:06;4.57;;;1.90;;
26060;SDS011;36331;51.378;0.018;2023-03-01T04:15:37;3.80;;;2.15;;
26060;SDS011;36331;51.378;0.018;2023-03-01T04:18:07;11.00;;;2.30;;
26060;SDS011;36331;51.378;0.018;2023-03-01T04:20:36;4.22;;;2.00;;
26060;SDS011;36331;51.378;0.018;2023-03-01T04:23:06;4.07;;;1.73;;
26060;SDS011;36331;51.378;0.018;2023-03-01T04:25:41;5.68;;;1.90;;
26060;SDS011;36331;51.378;0.018;2023-03-01T04:28:11;4.07;;;2.00;;
26060;SDS011;36331;51.378;0.018;2023-03-01T04:30:42;5.03;;;1.73;;
26060;SDS011;36331;51.378;0.018;2023-03-01T04:33:12;3.83;;;2.13;;
26060;SDS011;36331;51.378;0.018;2023-03-01T04:35:41;4.88;;;2.03;;
26060;SDS011;36331;51.378;0.018;2023-03-01T04:38:11;6.05;;;1.98;;
26060;SDS011;36331;51.378;0.018;2023-03-01T04:40:40;2.97;;;2.03;;
26060;SDS011;36331;51.378;0.018;2023-03-01T04:43:10;7.75;;;2.08;;
26060;SDS011;36331;51.378;0.018;2023-03-01T04:45:42;6.38;;;2.28;;
26060;SDS011;36331;51.378;0.018;2023-03-01T04:48:12;3.50;;;1.50;;
26060;SDS011;36331;51.378;0.018;2023-03-01T04:50:41;4.45;;;2.42;;
26060;SDS011;36331;51.378;0.018;2023-03-01T04:53:10;3.40;;;1.77;;
26060;SDS011;36331;51.378;0.018;2023-03-01T04:55:39;6.95;;;2.00;;
26060;SDS011;36331;51.378;0.018;2023-03-01T04:58:09;4.18;;;2.00;;
26060;SDS011;36331;51.378;0.018;2023-03-01T05:00:38;2.97;;;1.88;;
26060;SDS011;36331;51.378;0.018;2023-03-01T05:03:09;2.15;;;1.60;;
26060;SDS011;36331;51.378;0.018;2023-03-01T05:05:38;3.22;;;1.67;;
26060;SDS011;36331;51.378;0.018;2023-03-01T05:08:08;2.70;;;2.05;;
26060;SDS011;36331;51.378;0.018;2023-03-01T05:10:44;3.45;;;2.05;;
26060;SDS011;36331;51.378;0.018;2023-03-01T05:13:14;6.47;;;2.50;;
26060;SDS011;36331;51.378;0.018;2023-03-01T05:15:48;2.75;;;1.80;;
26060;SDS011;36331;51.378;0.018;2023-03-01T05:18:19;3.25;;;1.50;;
26060;SDS011;36331;51.378;0.018;2023-03-01T05:20:53;2.40;;;1.63;;
26060;SDS011;36331;51.378;0.018;2023-03-01T05:23:25;3.53;;;2.00;;
26060;SDS011;36331;51.378;0.018;2023-03-01T05:25:57;3.47;;;1.58;;
26060;SDS011;36331;51.378;0.018;2023-03-01T05:28:26;3.95;;;1.98;;
26060;SDS011;36331;51.378;0.018;2023-03-01T05:30:57;2.75;;;1.60;;
26060;SDS011;36331;51.378;0.018;2023-03-01T05:33:27;2.10;;;1.70;;
26060;SDS011;36331;51.378;0.018;2023-03-01T05:35:59;2.15;;;1.55;;
26060;SDS011;36331;51.378;0.018;2023-03-01T05:38:28;2.17;;;1.70;;
26060;SDS011;36331;51.378;0.018;2023-03-01T05:40:57;3.17;;;2.20;;
26060;SDS011;36331;51.378;0.018;2023-03-01T05:43:26;2.55;;;2.13;;
26060;SDS011;36331;51.378;0.018;2023-03-01T05:45:58;3.58;;;1.90;;
26060;SDS011;36331;51.378;0.018;2023-03-01T05:48:28;2.95;;;1.85;;
26060;SDS011;36331;51.378;0.018;2023-03-01T05:50:59;2.83;;;1.77;;
26060;SDS011;36331;51.378;0.018;2023-03-01T05:53:28;3.30;;;1.40;;
26060;SDS011;36331;51.378;0.018;2023-03-01T05:55:57;4.18;;;2.10;;
26060;SDS011;36331;51.378;0.018;2023-03-01T05:58:27;2.35;;;1.50;;
26060;SDS011;36331;51.378;0.018;2023-03-01T06:00:56;11.63;;;1.90;;
26060;SDS011;36331;51.378;0.018;2023-03-01T06:03:25;3.33;;;2.38;;
26060;SDS011;36331;51.378;0.018;2023-03-01T06:05:57;11.00;;;2.03;;
26060;SDS011;36331;51.378;0.018;2023-03-01T06:08:26;4.35;;;1.75;;
26060;SDS011;36331;51.378;0.018;2023-03-01T06:10:55;2.30;;;1.30;;
26060;SDS011;36331;51.378;0.018;2023-03-01T06:13:24;3.80;;;2.08;;
26060;SDS011;36331;51.378;0.018;2023-03-01T06:15:53;4.18;;;2.30;;
26060;SDS011;36331;51.378;0.018;2023-03-01T06:18:22;2.78;;;2.35;;
26060;SDS011;36331;51.378;0.018;2023-03-01T06:20:54;4.50;;;2.13;;
26060;SDS011;36331;51.378;0.018;2023-03-01T06:23:25;4.20;;;2.50;;
26060;SDS011;36331;51.378;0.018;2023-03-01T06:25:54;4.10;;;1.83;;
26060;SDS011;36331;51.378;0.018;2023-03-01T06:28:24;1.65;;;1.55;;
26060;SDS011;36331;51.378;0.018;2023-03-01T06:30:53;2.10;;;1.60;;
26060;SDS011;36331;51.378;0.018;2023-03-01T06:33:23;3.05;;;2.00;;
26060;SDS011;36331;51.378;0.018;2023-03-01T06:35:54;4.50;;;1.42;;
26060;SDS011;36331;51.378;0.018;2023-03-01T06:38:23;6.88;;;2.30;;
26060;SDS011;36331;51.378;0.018;2023-03-01T06:40:54;5.97;;;3.65;;
26060;SDS011;36331;51.378;0.018;2023-03-01T06:43:24;8.52;;;2.20;;
26060;SDS011;36331;51.378;0.018;2023-03-01T06:45:53;4.05;;;2.40;;
26060;SDS011;36331;51.378;0.018;2023-03-01T06:48:22;3.47;;;1.85;;
26060;SDS011;36331;51.378;0.018;2023-03-01T06:50:51;2.97;;;2.25;;
26060;SDS011;36331;51.378;0.018;2023-03-01T06:53:20;5.20;;;2.60;;
26060;SDS011;36331;51.378;0.018;2023-03-01T06:55:54;3.95;;;2.72;;
26060;SDS011;36331;51.378;0.018;2023-03-01T06:58:23;3.92;;;2.75;;
26060;SDS011;36331;51.378;0.018;2023-03-01T07:00:52;5.90;;;2.83;;
26060;SDS011;36331;51.378;0.018;2023-03-01T07:03:21;3.33;;;2.97;;
26060;SDS011;36331;51.378;0.018;2023-03-01T07:05:51;3.95;;;2.92;;
26060;SDS011;36331;51.378;0.018;2023-03-01T07:08:20;4.63;;;3.08;;
26060;SDS011;36331;51.378;0.018;2023-03-01T07:10:55;4.97;;;3.28;;
26060;SDS011;36331;51.378;0.018;2023-03-01T07:13:24;7.13;;;2.88;;
26060;SDS011;36331;51.378;0.018;2023-03-01T07:15:54;4.32;;;2.78;;
26060;SDS011;36331;51.378;0.018;2023-03-01T07:18:23;5.65;;;3.33;;
26060;SDS011;36331;51.378;0.018;2023-03-01T07:20:52;3.20;;;2.13;;
26060;SDS011;36331;51.378;0.018;2023-03-01T07:23:21;4.13;;;3.13;;
26060;SDS011;36331;51.378;0.018;2023-03-01T07:25:51;4.18;;;3.20;;
26060;SDS011;36331;51.378;0.018;2023-03-01T07:28:23;5.53;;;3.22;;
26060;SDS011;36331;51.378;0.018;2023-03-01T07:33:21;3.85;;;2.38;;
26060;SDS011;36331;51.378;0.018;2023-03-01T07:35:55;3.28;;;2.30;;
26060;SDS011;36331;51.378;0.018;2023-03-01T07:38:24;3.38;;;2.20;;
26060;SDS011;36331;51.378;0.018;2023-03-01T07:40:57;4.78;;;2.03;;
26060;SDS011;36331;51.378;0.018;2023-03-01T07:43:30;5.22;;;2.08;;
26060;SDS011;36331;51.378;0.018;2023-03-01T07:46:00;4.43;;;1.90;;
26060;SDS011;36331;51.378;0.018;2023-03-01T07:48:29;3.78;;;2.20;;
26060;SDS011;36331;51.378;0.018;2023-03-01T07:50:59;12.15;;;2.75;;
26060;SDS011;36331;51.378;0.018;2023-03-01T07:53:29;2.90;;;2.03;;
26060;SDS011;36331;51.378;0.018;2023-03-01T07:56:02;6.00;;;2.05;;
26060;SDS011;36331;51.378;0.018;2023-03-01T07:58:35;3.75;;;2.33;;
26060;SDS011;36331;51.378;0.018;2023-03-01T08:01:05;5.00;;;2.22;;
26060;SDS011;36331;51.378;0.018;2023-03-01T08:03:34;5.07;;;2.20;;
26060;SDS011;36331;51.378;0.018;2023-03-01T08:06:04;4.10;;;2.70;;
26060;SDS011;36331;51.378;0.018;2023-03-01T08:08:34;4.65;;;1.98;;
26060;SDS011;36331;51.378;0.018;2023-03-01T08:11:04;5.57;;;2.38;;
26060;SDS011;36331;51.378;0.018;2023-03-01T08:13:36;5.63;;;2.93;;
26060;SDS011;36331;51.378;0.018;2023-03-01T08:16:07;6.50;;;2.28;;
26060;SDS011;36331;51.378;0.018;2023-03-01T08:18:37;4.18;;;2.60;;
26060;SDS011;36331;51.378;0.018;2023-03-01T08:21:07;4.68;;;2.63;;
26060;SDS011;36331;51.378;0.018;2023-03-01T08:23:37;6.13;;;2.70;;
26060;SDS011;36331;51.378;0.018;2023-03-01T08:26:07;6.40;;;3.05;;
26060;SDS011;36331;51.378;0.018;2023-03-01T08:28:37;3.53;;;1.98;;
26060;SDS011;36331;51.378;0.018;2023-03-01T08:31:16;4.72;;;1.85;;
26060;SDS011;36331;51.378;0.018;2023-03-01T08:33:46;4.50;;;2.38;;
26060;SDS011;36331;51.378;0.018;2023-03-01T08:36:17;4.10;;;2.63;;
26060;SDS011;36331;51.378;0.018;2023-03-01T08:38:48;8.43;;;2.20;;
26060;SDS011;36331;51.378;0.018;2023-03-01T08:41:17;4.25;;;1.50;;
26060;SDS011;36331;51.378;0.018;2023-03-01T08:43:47;4.05;;;1.38;;
26060;SDS011;36331;51.378;0.018;2023-03-01T08:46:17;2.35;;;1.33;;
26060;SDS011;36331;51.378;0.018;2023-03-01T08:48:47;5.85;;;1.63;;
26060;SDS011;36331;51.378;0.018;2023-03-01T08:51:16;2.85;;;1.30;;
26060;SDS011;36331;51.378;0.018;2023-03-01T08:53:46;1.10;;;0.95;;
26060;SDS011;36331;51.378;0.018;2023-03-01T08:56:15;4.88;;;1.88;;
26060;SDS011;36331;51.378;0.018;2023-03-01T08:58:45;3.30;;;1.30;;
26060;SDS011;36331;51.378;0.018;2023-03-01T09:01:16;3.10;;;1.55;;
26060;SDS011;36331;51.378;0.018;2023-03-01T09:03:46;4.57;;;1.25;;
26060;SDS011;36331;51.378;0.018;2023-03-01T09:06:15;2.58;;;1.15;;
26060;SDS011;36331;51.378;0.018;2023-03-01T09:08:45;2.05;;;0.98;;
26060;SDS011;36331;51.378;0.018;2023-03-01T09:11:16;4.60;;;1.40;;
26060;SDS011;36331;51.378;0.018;2023-03-01T09:13:45;2.25;;;0.88;;
26060;SDS011;36331;51.378;0.018;2023-03-01T09:16:17;1.73;;;0.75;;
26060;SDS011;36331;51.378;0.018;2023-03-01T09:18:48;3.90;;;1.00;;
26060;SDS011;36331;51.378;0.018;2023-03-01T09:21:19;2.00;;;1.23;;
26060;SDS011;36331;51.378;0.018;2023-03-01T09:24:05;5.60;;;1.40;;
26060;SDS011;36331;51.378;0.018;2023-03-01T09:26:34;2.08;;;1.02;;
26060;SDS011;36331;51.378;0.018;2023-03-01T09:29:03;1.42;;;0.98;;
26060;SDS011;36331;51.378;0.018;2023-03-01T09:31:34;1.40;;;1.02;;
26060;SDS011;36331;51.378;0.018;2023-03-01T09:34:03;1.88;;;1.13;;
26060;SDS011;36331;51.378;0.018;2023-03-01T09:36:32;2.60;;;0.90;;
26060;SDS011;36331;51.378;0.018;2023-03-01T09:39:03;2.90;;;0.90;;
26060;SDS011;36331;51.378;0.018;2023-03-01T09:44:30;2.05;;;0.80;;
26060;SDS011;36331;51.378;0.018;2023-03-01T09:47:01;4.43;;;1.17;;
26060;SDS011;36331;51.378;0.018;2023-03-01T09:49:31;1.43;;;0.80;;
26060;SDS011;36331;51.378;0.018;2023-03-01T09:52:03;1.73;;;0.90;;
26060;SDS011;36331;51.378;0.018;2023-03-01T09:54:39;3.75;;;0.73;;
26060;SDS011;36331;51.378;0.018;2023-03-01T09:57:12;2.67;;;0.82;;
26060;SDS011;36331;51.378;0.018;2023-03-01T09:59:57;2.47;;;0.52;;
26060;SDS011;36331;51.378;0.018;2023-03-01T10:02:35;3.53;;;1.00;;
26060;SDS011;36331;51.378;0.018;2023-03-01T10:05:13;8.70;;;1.13;;
26060;SDS011;36331;51.378;0.018;2023-03-01T10:07:51;1.90;;;0.70;;
26060;SDS011;36331;51.378;0.018;2023-03-01T10:10:25;1.90;;;0.95;;
26060;SDS011;36331;51.378;0.018;2023-03-01T10:12:56;2.08;;;0.82;;
26060;SDS011;36331;51.378;0.018;2023-03-01T10:15:29;3.97;;;0.80;;
26060;SDS011;36331;51.378;0.018;2023-03-01T10:18:03;2.85;;;0.70;;
26060;SDS011;36331;51.378;0.018;2023-03-01T10:20:37;1.55;;;1.10;;
26060;SDS011;36331;51.378;0.018;2023-03-01T10:23:09;3.40;;;1.52;;
26060;SDS011;36331;51.378;0.018;2023-03-01T10:25:43;1.52;;;0.85;;
26060;SDS011;36331;51.378;0.018;2023-03-01T10:28:16;2.05;;;0.80;;
26060;SDS011;36331;51.378;0.018;2023-03-01T10:30:45;2.50;;;0.70;;
26060;SDS011;36331;51.378;0.018;2023-03-01T10:33:17;4.20;;;1.05;;
26060;SDS011;36331;51.378;0.018;2023-03-01T10:35:47;1.13;;;0.65;;
26060;SDS011;36331;51.378;0.018;2023-03-01T10:38:16;2.13;;;0.85;;
26060;SDS011;36331;51.378;0.018;2023-03-01T10:40:51;1.33;;;0.85;;
26060;SDS011;36331;51.378;0.018;2023-03-01T10:43:21;4.00;;;0.80;;
26060;SDS011;36331;51.378;0.018;2023-03-01T10:45:50;1.73;;;0.75;;
26060;SDS011;36331;51.378;0.018;2023-03-01T10:48:22;1.13;;;0.70;;
26060;SDS011;36331;51.378;0.018;2023-03-01T10:51:04;2.03;;;0.77;;
26060;SDS011;36331;51.378;0.018;2023-03-01T10:53:34;0.95;;;0.50;;
26060;SDS011;36331;51.378;0.018;2023-03-01T10:56:05;2.25;;;1.05;;
26060;SDS011;36331;51.378;0.018;2023-03-01T10:58:36;1.05;;;0.60;;
26060;SDS011;36331;51.378;0.018;2023-03-01T11:01:05;2.05;;;0.45;;
26060;SDS011;36331;51.378;0.018;2023-03-01T11:03:37;0.85;;;0.30;;
26060;SDS011;36331;51.378;0.018;2023-03-01T11:08:39;1.33;;;0.50;;
26060;SDS011;36331;51.378;0.018;2023-03-01T11:11:14;1.52;;;0.50;;
26060;SDS011;36331;51.378;0.018;2023-03-01T11:13:55;1.25;;;0.50;;
26060;SDS011;36331;51.378;0.018;2023-03-01T11:16:26;2.53;;;0.75;;
26060;SDS011;36331;51.378;0.018;2023-03-01T11:18:58;0.80;;;0.50;;
26060;SDS011;36331;51.378;0.018;2023-03-01T11:21:28;1.70;;;0.77;;
26060;SDS011;36331;51.378;0.018;2023-03-01T11:23:59;6.55;;;0.85;;
26060;SDS011;36331;51.378;0.018;2023-03-01T11:26:28;1.75;;;0.68;;
26060;SDS011;36331;51.378;0.018;2023-03-01T11:29:00;2.70;;;1.48;;
26060;SDS011;36331;51.378;0.018;2023-03-01T11:31:31;3.42;;;0.70;;
26060;SDS011;36331;51.378;0.018;2023-03-01T11:34:05;1.30;;;0.60;;
26060;SDS011;36331;51.378;0.018;2023-03-01T11:36:35;0.40;;;0.40;;
26060;SDS011;36331;51.378;0.018;2023-03-01T11:39:12;0.85;;;0.43;;
26060;SDS011;36331;51.378;0.018;2023-03-01T11:41:44;0.68;;;0.32;;
26060;SDS011;36331;51.378;0.018;2023-03-01T11:44:19;1.15;;;0.40;;
26060;SDS011;36331;51.378;0.018;2023-03-01T11:46:51;5.43;;;0.73;;
26060;SDS011;36331;51.378;0.018;2023-03-01T11:49:36;1.85;;;0.60;;
26060;SDS011;36331;51.378;0.018;2023-03-01T11:52:08;1.45;;;0.40;;
26060;SDS011;36331;51.378;0.018;2023-03-01T11:54:45;1.48;;;0.60;;
26060;SDS011;36331;51.378;0.018;2023-03-01T11:57:18;2.72;;;0.75;;
26060;SDS011;36331;51.378;0.018;2023-03-01T12:00:07;2.63;;;0.55;;
26060;SDS011;36331;51.378;0.018;2023-03-01T12:05:52;0.45;;;0.40;;
26060;SDS011;36331;51.378;0.018;2023-03-01T12:08:32;0.30;;;0.30;;
26060;SDS011;36331;51.378;0.018;2023-03-01T12:11:03;0.52;;;0.52;;
26060;SDS011;36331;51.378;0.018;2023-03-01T12:13:51;1.77;;;0.50;;
26060;SDS011;36331;51.378;0.018;2023-03-01T12:16:25;1.20;;;0.70;;
26060;SDS011;36331;51.378;0.018;2023-03-01T12:19:13;1.85;;;0.47;;
26060;SDS011;36331;51.378;0.018;2023-03-01T12:21:49;1.70;;;0.75;;
26060;SDS011;36331;51.378;0.018;2023-03-01T12:24:27;1.13;;;0.77;;
26060;SDS011;36331;51.378;0.018;2023-03-01T12:27:06;1.80;;;0.60;;
26060;SDS011;36331;51.378;0.018;2023-03-01T12:29:37;1.38;;;0.40;;
26060;SDS011;36331;51.378;0.018;2023-03-01T12:32:15;1.05;;;0.50;;
26060;SDS011;36331;51.378;0.018;2023-03-01T12:34:55;2.72;;;0.60;;
26060;SDS011;36331;51.378;0.018;2023-03-01T12:37:31;1.60;;;0.40;;
26060;SDS011;36331;51.378;0.018;2023-03-01T12:40:23;3.30;;;0.77;;
26060;SDS011;36331;51.378;0.018;2023-03-01T12:42:58;1.42;;;0.70;;
26060;SDS011;36331;51.378;0.018;2023-03-01T12:45:39;2.13;;;0.70;;
26060;SDS011;36331;51.378;0.018;2023-03-01T12:48:16;2.30;;;0.68;;
26060;SDS011;36331;51.378;0.018;2023-03-01T12:50:47;1.65;;;0.82;;
26060;SDS011;36331;51.378;0.018;2023-03-01T12:53:22;2.33;;;0.77;;
26060;SDS011;36331;51.378;0.018;2023-03-01T12:55:52;0.98;;;0.52;;
26060;SDS011;36331;51.378;0.018;2023-03-01T12:58:24;2.28;;;0.47;;
26060;SDS011;36331;51.378;0.018;2023-03-01T13:01:14;1.45;;;0.70;;
26060;SDS011;36331;51.378;0.018;2023-03-01T13:03:56;1.45;;;0.80;;
26060;SDS011;36331;51.378;0.018;2023-03-01T13:06:29;2.30;;;0.90;;
26060;SDS011;36331;51.378;0.018;2023-03-01T13:09:13;5.95;;;1.80;;
26060;SDS011;36331;51.378;0.018;2023-03-01T13:11:43;4.68;;;1.38;;
26060;SDS011;36331;51.378;0.018;2023-03-01T13:17:39;3.97;;;0.98;;
26060;SDS011;36331;51.378;0.018;2023-03-01T13:20:13;1.85;;;1.10;;
26060;SDS011;36331;51.378;0.018;2023-03-01T13:22:43;4.38;;;2.28;;
26060;SDS011;36331;51.378;0.018;2023-03-01T13:25:22;3.35;;;0.90;;
26060;SDS011;36331;51.378;0.018;2023-03-01T13:30:48;6.50;;;1.30;;
26060;SDS011;36331;51.378;0.018;2023-03-01T13:33:34;1.35;;;0.90;;
26060;SDS011;36331;51.378;0.018;2023-03-01T13:36:08;3.35;;;1.33;;
26060;SDS011;36331;51.378;0.018;2023-03-01T13:38:47;2.65;;;0.90;;
26060;SDS011;36331;51.378;0.018;2023-03-01T13:41:48;4.82;;;2.13;;
26060;SDS011;36331;51.378;0.018;2023-03-01T13:44:17;2.63;;;1.20;;
26060;SDS011;36331;51.378;0.018;2023-03-01T13:46:49;2.00;;;0.82;;
26060;SDS011;36331;51.378;0.018;2023-03-01T13:49:21;3.85;;;1.20;;
26060;SDS011;36331;51.378;0.018;2023-03-01T13:51:51;2.42;;;2.15;;
26060;SDS011;36331;51.378;0.018;2023-03-01T13:54:23;5.15;;;1.73;;
26060;SDS011;36331;51.378;0.018;2023-03-01T13:56:55;2.08;;;1.38;;
26060;SDS011;36331;51.378;0.018;2023-03-01T13:59:24;2.97;;;1.38;;
26060;SDS011;36331;51.378;0.018;2023-03-01T14:01:55;5.50;;;1.58;;
26060;SDS011;36331;51.378;0.018;2023-03-01T14:04:25;2.03;;;0.90;;
26060;SDS011;36331;51.378;0.018;2023-03-01T14:07:08;2.72;;;1.30;;
26060;SDS011;36331;51.378;0.018;2023-03-01T14:09:37;1.10;;;0.77;;
26060;SDS011;36331;51.378;0.018;2023-03-01T14:12:23;1.77;;;0.80;;
26060;SDS011;36331;51.378;0.018;2023-03-01T14:14:56;3.28;;;1.10;;
26060;SDS011;36331;51.378;0.018;2023-03-01T14:20:20;1.17;;;0.90;;
26060;SDS011;36331;51.378;0.018;2023-03-01T14:22:50;1.80;;;1.00;;
26060;SDS011;36331;51.378;0.018;2023-03-01T14:25:22;4.17;;;0.93;;
26060;SDS011;36331;51.378;0.018;2023-03-01T14:27:55;1.35;;;1.13;;
26060;SDS011;36331;51.378;0.018;2023-03-01T14:30:25;1.38;;;1.00;;
26060;SDS011;36331;51.378;0.018;2023-03-01T14:32:56;2.17;;;1.10;;
26060;SDS011;36331;51.378;0.018;2023-03-01T14:35:26;4.15;;;1.55;;
26060;SDS011;36331;51.378;0.018;2023-03-01T14:37:56;2.88;;;1.80;;
26060;SDS011;36331;51.378;0.018;2023-03-01T14:40:26;5.38;;;1.55;;
26060;SDS011;36331;51.378;0.018;2023-03-01T14:42:59;7.85;;;2.33;;
26060;SDS011;36331;51.378;0.018;2023-03-01T14:45:29;3.92;;;1.45;;
26060;SDS011;36331;51.378;0.018;2023-03-01T14:47:59;8.48;;;2.85;;
26060;SDS011;36331;51.378;0.018;2023-03-01T14:50:29;3.90;;;1.52;;
26060;SDS011;36331;51.378;0.018;2023-03-01T14:52:59;2.38;;;1.38;;
26060;SDS011;36331;51.378;0.018;2023-03-01T14:55:30;5.15;;;1.45;;
26060;SDS011;36331;51.378;0.018;2023-03-01T14:58:04;4.22;;;1.23;;
26060;SDS011;36331;51.378;0.018;2023-03-01T15:00:33;2.45;;;1.25;;
26060;SDS011;36331;51.378;0.018;2023-03-01T15:03:06;3.67;;;1.17;;
26060;SDS011;36331;51.378;0.018;2023-03-01T15:05:36;3.97;;;1.38;;
26060;SDS011;36331;51.378;0.018;2023-03-01T15:08:06;4.18;;;1.73;;
26060;SDS011;36331;51.378;0.018;2023-03-01T15:10:36;6.35;;;2.30;;
26060;SDS011;36331;51.378;0.018;2023-03-01T15:13:12;5.57;;;1.90;;
26060;SDS011;36331;51.378;0.018;2023-03-01T15:15:42;3.63;;;1.90;;
26060;SDS011;36331;51.378;0.018;2023-03-01T15:18:14;4.82;;;1.92;;
26060;SDS011;36331;51.378;0.018;2023-03-01T15:20:44;3.22;;;1.13;;
26060;SDS011;36331;51.378;0.018;2023-03-01T15:23:18;2.72;;;1.30;;
26060;SDS011;36331;51.378;0.018;2023-03-01T15:25:48;3.55;;;1.52;;
26060;SDS011;36331;51.378;0.018;2023-03-01T15:28:25;4.85;;;2.08;;
26060;SDS011;36331;51.378;0.018;2023-03-01T15:33:28;5.28;;;2.63;;
26060;SDS011;36331;51.378;0.018;2023-03-01T15:35:58;5.95;;;2.10;;
26060;SDS011;36331;51.378;0.018;2023-03-01T15:38:29;4.10;;;1.92;;